Time;durP1;ratioP1;P1;durP2;ratioP2;P2;SDS_P1;SDS_P2;PMS_P1;PMS_P2;Temp;Humidity;BMP_temperature;BMP_pressure;BME280_temperature;BME280_humidity;BME280_pressure;Samples;Min_cycle;Max_cycle;Signal;HPM_P1;HPM_P2
2022/04/06 00:02:10;;;;;;;8.87;7.50;;;;;;;;;;746095;187;1020729;-60
2022/04/06 00:04:36;;;;;;;9.95;7.80;;;;;;;;;;738370;188;919351;-60
2022/04/06 00:07:02;;;;;;;9.37;7.10;;;;;;;;;;744087;187;918269;-60
2022/04/06 00:09:28;;;;;;;10.63;6.50;;;;;;;;;;750268;186;920196;-59
2022/04/06 00:11:53;;;;;;;8.93;6.27;;;;;;;;;;747092;184;919222;-60
2022/04/06 00:14:19;;;;;;;14.48;7.65;;;;;;;;;;747633;185;918720;-61
2022/04/06 00:16:45;;;;;;;10.00;6.53;;;;;;;;;;746679;184;919060;-59
2022/04/06 00:19:11;;;;;;;12.27;7.53;;;;;;;;;;743887;187;919893;-60
2022/04/06 00:21:37;;;;;;;11.00;8.13;;;;;;;;;;748999;185;918999;-60
2022/04/06 00:24:03;;;;;;;10.75;8.05;;;;;;;;;;746091;187;918884;-60
2022/04/06 00:26:28;;;;;;;13.00;8.80;;;;;;;;;;753484;184;918715;-61
2022/04/06 00:28:54;;;;;;;11.33;8.37;;;;;;;;;;745141;187;920365;-61
2022/04/06 00:31:20;;;;;;;9.07;7.20;;;;;;;;;;746888;185;919846;-60
2022/04/06 00:33:47;;;;;;;10.27;7.30;;;;;;;;;;750378;185;918471;-60
2022/04/06 00:36:12;;;;;;;10.07;8.17;;;;;;;;;;743931;186;919715;-60
2022/04/06 00:38:38;;;;;;;9.00;6.00;;;;;;;;;;746392;184;918298;-60
2022/04/06 00:41:04;;;;;;;12.03;8.30;;;;;;;;;;752158;187;919515;-60
2022/04/06 00:43:29;;;;;;;10.70;7.93;;;;;;;;;;744757;184;918897;-60
2022/04/06 00:45:55;;;;;;;11.77;9.00;;;;;;;;;;750018;184;918883;-60
2022/04/06 00:48:21;;;;;;;11.63;8.00;;;;;;;;;;746712;185;919435;-60
2022/04/06 00:50:47;;;;;;;12.97;7.90;;;;;;;;;;752658;187;911535;-62
2022/04/06 00:53:13;;;;;;;10.87;7.63;;;;;;;;;;749278;185;920524;-60
2022/04/06 00:55:39;;;;;;;11.18;8.35;;;;;;;;;;753121;184;970822;-60
2022/04/06 00:58:05;;;;;;;13.20;8.87;;;;;;;;;;747972;186;915968;-60
2022/04/06 01:00:31;;;;;;;11.53;7.97;;;;;;;;;;741896;185;923215;-60
2022/04/06 01:02:56;;;;;;;12.13;8.50;;;;;;;;;;743914;186;914023;-60
2022/04/06 01:05:23;;;;;;;11.13;8.67;;;;;;;;;;755687;185;919866;-61
2022/04/06 01:07:48;;;;;;;12.77;9.33;;;;;;;;;;746916;187;914825;-60
2022/04/06 01:10:14;;;;;;;11.90;8.17;;;;;;;;;;750046;185;912752;-60
2022/04/06 01:12:40;;;;;;;13.68;9.32;;;;;;;;;;741526;187;937022;-59
2022/04/06 01:15:07;;;;;;;13.20;8.90;;;;;;;;;;748825;185;919621;-60
2022/04/06 01:17:33;;;;;;;14.03;7.80;;;;;;;;;;744298;185;919773;-60
2022/04/06 01:20:00;;;;;;;14.53;9.27;;;;;;;;;;743731;187;918612;-60
2022/04/06 01:22:26;;;;;;;13.55;9.68;;;;;;;;;;748855;187;915833;-60
2022/04/06 01:24:51;;;;;;;13.07;9.30;;;;;;;;;;744627;187;916138;-60
2022/04/06 01:27:17;;;;;;;12.00;8.80;;;;;;;;;;743128;187;916456;-60
2022/04/06 01:29:42;;;;;;;10.63;8.30;;;;;;;;;;747508;186;916120;-60
2022/04/06 01:32:09;;;;;;;12.20;9.30;;;;;;;;;;743428;185;917345;-60
2022/04/06 01:34:35;;;;;;;12.57;8.20;;;;;;;;;;739031;185;920208;-60
2022/04/06 01:37:01;;;;;;;12.57;8.70;;;;;;;;;;739998;187;919355;-59
2022/04/06 01:39:27;;;;;;;11.57;8.10;;;;;;;;;;755646;185;918315;-60
2022/04/06 01:41:53;;;;;;;12.60;9.60;;;;;;;;;;744248;184;919687;-60
2022/04/06 01:44:18;;;;;;;14.10;9.80;;;;;;;;;;739382;186;919512;-60
2022/04/06 01:46:44;;;;;;;11.57;8.37;;;;;;;;;;746923;187;1020494;-60
2022/04/06 01:54:14;;;;;;;13.90;9.83;;;;;;;;;;744424;185;920169;-59
2022/04/06 01:56:39;;;;;;;12.60;9.07;;;;;;;;;;749183;185;918061;-59
2022/04/06 01:59:06;;;;;;;18.93;9.27;;;;;;;;;;747962;187;919104;-60
2022/04/06 02:01:31;;;;;;;13.13;9.00;;;;;;;;;;744490;187;918356;-61
2022/04/06 02:03:59;;;;;;;11.00;8.20;;;;;;;;;;750612;187;918847;-59
2022/04/06 02:06:23;;;;;;;12.73;8.67;;;;;;;;;;740487;185;940794;-60
2022/04/06 02:08:49;;;;;;;10.23;7.70;;;;;;;;;;746459;184;921190;-59
2022/04/06 02:11:16;;;;;;;15.27;10.43;;;;;;;;;;744267;186;1022318;-60
2022/04/06 02:13:40;;;;;;;12.20;8.60;;;;;;;;;;747451;185;919168;-60
2022/04/06 02:16:07;;;;;;;10.43;8.53;;;;;;;;;;741653;187;917812;-60
2022/04/06 02:18:32;;;;;;;12.23;8.90;;;;;;;;;;744768;184;917831;-60
2022/04/06 02:20:58;;;;;;;10.93;8.47;;;;;;;;;;751512;187;913940;-60
2022/04/06 02:23:24;;;;;;;16.13;8.93;;;;;;;;;;742889;187;916674;-59
2022/04/06 02:25:49;;;;;;;11.27;8.70;;;;;;;;;;742680;186;918897;-60
2022/04/06 02:28:15;;;;;;;14.07;9.07;;;;;;;;;;746675;187;918417;-62
2022/04/06 02:30:41;;;;;;;12.13;8.73;;;;;;;;;;714555;193;920896;-60
2022/04/06 02:33:07;;;;;;;10.80;7.60;;;;;;;;;;706500;193;919305;-60
2022/04/06 02:35:34;;;;;;;11.70;9.15;;;;;;;;;;738911;188;918725;-59
2022/04/06 02:37:59;;;;;;;10.10;7.70;;;;;;;;;;752594;182;919637;-60
2022/04/06 02:40:25;;;;;;;14.90;9.60;;;;;;;;;;746094;187;919628;-60
2022/04/06 02:42:51;;;;;;;23.97;10.17;;;;;;;;;;745347;187;918261;-60
2022/04/06 02:45:17;;;;;;;12.90;9.60;;;;;;;;;;751971;186;918105;-59
2022/04/06 02:47:43;;;;;;;15.57;9.53;;;;;;;;;;746059;184;918440;-60
2022/04/06 02:50:09;;;;;;;12.80;9.33;;;;;;;;;;742187;186;922828;-59
2022/04/06 02:52:35;;;;;;;10.17;8.60;;;;;;;;;;748592;186;920409;-60
2022/04/06 02:55:00;;;;;;;13.13;8.73;;;;;;;;;;746069;185;920588;-60
2022/04/06 02:57:26;;;;;;;11.97;9.13;;;;;;;;;;746362;185;919279;-60
2022/04/06 02:59:52;;;;;;;11.37;8.33;;;;;;;;;;751587;186;919134;-60
2022/04/06 03:02:18;;;;;;;11.60;8.47;;;;;;;;;;745270;185;919933;-60
2022/04/06 03:04:44;;;;;;;10.77;8.53;;;;;;;;;;745597;186;919892;-60
2022/04/06 03:07:10;;;;;;;8.37;5.57;;;;;;;;;;745442;187;918310;-60
2022/04/06 03:09:36;;;;;;;11.00;8.77;;;;;;;;;;753918;185;920166;-60
2022/04/06 03:12:03;;;;;;;12.50;8.30;;;;;;;;;;747443;187;919574;-60
2022/04/06 03:14:27;;;;;;;13.40;8.00;;;;;;;;;;747190;186;919470;-60
2022/04/06 03:16:53;;;;;;;14.20;9.20;;;;;;;;;;750811;187;936556;-60
2022/04/06 03:19:19;;;;;;;11.10;8.48;;;;;;;;;;746179;185;916313;-60
2022/04/06 03:21:45;;;;;;;17.97;8.37;;;;;;;;;;747034;186;916896;-60
2022/04/06 03:24:11;;;;;;;14.77;8.90;;;;;;;;;;750728;184;919079;-60
2022/04/06 03:26:37;;;;;;;13.15;8.23;;;;;;;;;;744762;186;918955;-61
2022/04/06 03:29:02;;;;;;;13.10;8.10;;;;;;;;;;743549;185;917699;-60
2022/04/06 03:31:28;;;;;;;12.80;8.57;;;;;;;;;;745659;184;919319;-60
2022/04/06 03:33:54;;;;;;;11.47;7.53;;;;;;;;;;741139;185;919403;-60
2022/04/06 03:36:20;;;;;;;11.37;8.13;;;;;;;;;;740279;184;918321;-60
2022/04/06 03:38:46;;;;;;;12.70;8.15;;;;;;;;;;740560;184;918707;-60
2022/04/06 03:41:12;;;;;;;14.13;8.77;;;;;;;;;;745589;184;931466;-60
2022/04/06 03:43:37;;;;;;;10.87;7.73;;;;;;;;;;742774;186;1021382;-61
2022/04/06 03:46:03;;;;;;;11.77;8.40;;;;;;;;;;742211;187;923550;-60
2022/04/06 03:48:29;;;;;;;13.87;8.17;;;;;;;;;;747992;186;918690;-60
2022/04/06 03:50:55;;;;;;;11.90;9.27;;;;;;;;;;746070;186;919507;-60
2022/04/06 03:53:21;;;;;;;9.50;7.63;;;;;;;;;;740766;186;982868;-60
2022/04/06 03:55:47;;;;;;;11.88;8.15;;;;;;;;;;747359;187;904357;-60
2022/04/06 03:58:13;;;;;;;10.50;8.33;;;;;;;;;;740363;187;918688;-60
2022/04/06 04:00:39;;;;;;;12.07;7.80;;;;;;;;;;739431;186;919753;-61
2022/04/06 04:03:06;;;;;;;11.97;7.93;;;;;;;;;;743525;187;919672;-60
2022/04/06 04:05:31;;;;;;;12.60;8.17;;;;;;;;;;750729;187;616702;-60
2022/04/06 04:07:57;;;;;;;11.47;8.37;;;;;;;;;;746125;183;918791;-60
2022/04/06 04:10:23;;;;;;;10.90;7.70;;;;;;;;;;745366;186;919101;-61
2022/04/06 04:12:48;;;;;;;13.70;9.40;;;;;;;;;;752168;186;919917;-60
2022/04/06 04:15:14;;;;;;;16.73;9.33;;;;;;;;;;746835;186;919781;-66
2022/04/06 04:17:40;;;;;;;11.97;8.40;;;;;;;;;;746418;186;919206;-60
2022/04/06 04:20:06;;;;;;;10.27;8.40;;;;;;;;;;750205;186;913213;-60
2022/04/06 04:22:32;;;;;;;12.27;9.50;;;;;;;;;;745814;184;1014598;-60
2022/04/06 04:24:58;;;;;;;12.27;8.43;;;;;;;;;;746639;187;919499;-60
2022/04/06 04:27:24;;;;;;;12.03;9.23;;;;;;;;;;746223;187;625845;-60
2022/04/06 04:29:50;;;;;;;10.37;7.00;;;;;;;;;;751588;187;636929;-60
2022/04/06 04:32:16;;;;;;;13.90;9.10;;;;;;;;;;749045;185;661753;-61
2022/04/06 04:34:42;;;;;;;12.60;8.90;;;;;;;;;;748041;184;636167;-60
2022/04/06 04:37:08;;;;;;;14.30;8.00;;;;;;;;;;750163;187;622195;-61
2022/04/06 04:39:33;;;;;;;11.40;7.70;;;;;;;;;;750475;184;634841;-59
2022/04/06 04:41:59;;;;;;;18.43;9.70;;;;;;;;;;750811;185;623744;-61
2022/04/06 04:44:25;;;;;;;14.47;9.80;;;;;;;;;;752664;186;624027;-61
2022/04/06 04:46:52;;;;;;;11.70;8.43;;;;;;;;;;747499;187;627767;-60
2022/04/06 04:49:17;;;;;;;14.03;10.03;;;;;;;;;;747313;185;1020985;-60
2022/04/06 04:51:43;;;;;;;12.70;9.27;;;;;;;;;;745354;185;1022012;-59
2022/04/06 04:54:10;;;;;;;17.70;10.17;;;;;;;;;;749301;187;919050;-60
2022/04/06 04:56:35;;;;;;;11.97;9.63;;;;;;;;;;743732;187;918765;-60
2022/04/06 04:59:01;;;;;;;11.67;9.43;;;;;;;;;;745395;186;920034;-60
2022/04/06 05:01:27;;;;;;;13.02;9.55;;;;;;;;;;747036;185;918607;-61
2022/04/06 05:03:53;;;;;;;14.63;9.77;;;;;;;;;;742845;186;920736;-60
2022/04/06 05:06:18;;;;;;;15.60;9.30;;;;;;;;;;742564;187;923060;-60
2022/04/06 05:08:44;;;;;;;12.00;8.73;;;;;;;;;;749360;185;920464;-60
2022/04/06 05:11:10;;;;;;;15.17;9.83;;;;;;;;;;744415;185;919541;-60
2022/04/06 05:13:36;;;;;;;13.88;9.32;;;;;;;;;;743179;187;919132;-60
2022/04/06 05:16:02;;;;;;;13.20;9.20;;;;;;;;;;747683;185;919688;-60
2022/04/06 05:18:29;;;;;;;16.20;10.43;;;;;;;;;;752160;185;916111;-60
2022/04/06 05:20:53;;;;;;;17.03;10.93;;;;;;;;;;743608;184;914740;-60
2022/04/06 05:23:19;;;;;;;15.30;11.00;;;;;;;;;;747971;185;915244;-60
2022/04/06 05:25:45;;;;;;;13.87;10.30;;;;;;;;;;750234;186;914952;-60
2022/04/06 05:28:11;;;;;;;11.73;6.80;;;;;;;;;;742943;187;919276;-61
2022/04/06 05:30:38;;;;;;;12.80;8.13;;;;;;;;;;741511;187;920538;-60
2022/04/06 05:33:03;;;;;;;17.77;9.90;;;;;;;;;;744781;186;919093;-61
2022/04/06 05:35:29;;;;;;;12.73;8.67;;;;;;;;;;722602;192;915078;-60
2022/04/06 05:37:54;;;;;;;12.30;8.23;;;;;;;;;;741769;186;912911;-60
2022/04/06 05:40:20;;;;;;;15.10;11.27;;;;;;;;;;744087;186;916243;-61
2022/04/06 05:42:46;;;;;;;20.13;9.40;;;;;;;;;;739579;184;916358;-60
2022/04/06 05:45:12;;;;;;;14.40;10.90;;;;;;;;;;740079;184;915616;-60
2022/04/06 05:47:38;;;;;;;15.10;9.67;;;;;;;;;;741885;186;916046;-62
2022/04/06 05:50:04;;;;;;;15.67;11.10;;;;;;;;;;745840;187;1017707;-61
2022/04/06 05:52:30;;;;;;;21.07;10.90;;;;;;;;;;744653;187;915702;-61
2022/04/06 05:54:56;;;;;;;12.97;9.70;;;;;;;;;;747111;186;932919;-60
2022/04/06 05:57:22;;;;;;;14.70;10.20;;;;;;;;;;752438;186;914083;-60
2022/04/06 05:59:47;;;;;;;19.17;10.07;;;;;;;;;;743830;185;919382;-60
2022/04/06 06:02:13;;;;;;;16.07;11.80;;;;;;;;;;742566;187;915830;-60
2022/04/06 06:04:39;;;;;;;13.80;10.40;;;;;;;;;;748564;186;915491;-61
2022/04/06 06:07:06;;;;;;;13.70;9.27;;;;;;;;;;743902;184;920189;-61
2022/04/06 06:09:32;;;;;;;16.30;12.40;;;;;;;;;;742996;186;915211;-62
2022/04/06 06:11:58;;;;;;;14.17;10.17;;;;;;;;;;744983;184;1016993;-61
2022/04/06 06:14:24;;;;;;;14.10;10.40;;;;;;;;;;749826;185;930425;-61
2022/04/06 06:16:50;;;;;;;15.00;11.07;;;;;;;;;;743428;184;920463;-60
2022/04/06 06:19:15;;;;;;;16.92;11.45;;;;;;;;;;739456;184;922353;-60
2022/04/06 06:21:41;;;;;;;17.53;10.13;;;;;;;;;;750653;186;919282;-59
2022/04/06 06:24:07;;;;;;;14.47;10.40;;;;;;;;;;741118;186;920438;-60
2022/04/06 06:26:33;;;;;;;13.70;10.83;;;;;;;;;;743376;187;1015849;-60
2022/04/06 06:28:59;;;;;;;16.20;9.90;;;;;;;;;;749370;187;919880;-60
2022/04/06 06:31:25;;;;;;;15.53;11.13;;;;;;;;;;745211;185;918608;-61
2022/04/06 06:33:51;;;;;;;13.90;9.67;;;;;;;;;;744264;186;920747;-60
2022/04/06 06:36:16;;;;;;;12.17;9.43;;;;;;;;;;744915;184;934280;-60
2022/04/06 06:38:42;;;;;;;13.30;10.10;;;;;;;;;;755901;182;916893;-61
2022/04/06 06:41:08;;;;;;;13.23;9.67;;;;;;;;;;740219;185;916540;-60
2022/04/06 06:43:34;;;;;;;13.80;10.73;;;;;;;;;;745743;184;919111;-60
2022/04/06 06:46:00;;;;;;;12.77;9.27;;;;;;;;;;749147;187;919421;-60
2022/04/06 06:48:25;;;;;;;13.30;8.97;;;;;;;;;;741820;187;919565;-60
2022/04/06 06:50:51;;;;;;;13.52;8.75;;;;;;;;;;741773;185;918757;-62
2022/04/06 06:53:17;;;;;;;11.77;9.53;;;;;;;;;;749839;187;917746;-60
2022/04/06 06:55:43;;;;;;;10.53;8.60;;;;;;;;;;745508;185;918584;-61
2022/04/06 06:58:09;;;;;;;14.37;9.10;;;;;;;;;;746378;187;918741;-62
2022/04/06 07:00:35;;;;;;;12.27;8.38;;;;;;;;;;750252;185;919267;-60
2022/04/06 07:03:01;;;;;;;11.83;9.13;;;;;;;;;;750880;186;920291;-62
2022/04/06 07:05:28;;;;;;;10.50;7.00;;;;;;;;;;743686;184;940005;-62
2022/04/06 07:07:54;;;;;;;10.20;8.20;;;;;;;;;;750925;185;627010;-62
2022/04/06 07:10:21;;;;;;;10.40;8.10;;;;;;;;;;751647;185;922921;-61
2022/04/06 07:12:46;;;;;;;10.13;7.80;;;;;;;;;;743192;186;1021172;-60
2022/04/06 07:15:12;;;;;;;10.77;7.80;;;;;;;;;;745591;186;919134;-60
2022/04/06 07:17:38;;;;;;;7.17;5.47;;;;;;;;;;747194;186;918992;-60
2022/04/06 07:20:04;;;;;;;10.50;7.30;;;;;;;;;;746850;184;920719;-61
2022/04/06 07:22:30;;;;;;;8.30;6.63;;;;;;;;;;739299;185;919599;-60
2022/04/06 07:24:56;;;;;;;9.20;7.27;;;;;;;;;;740693;185;919389;-60
2022/04/06 07:27:22;;;;;;;8.45;6.18;;;;;;;;;;742960;187;919985;-60
2022/04/06 07:29:48;;;;;;;9.07;6.30;;;;;;;;;;739989;184;920717;-60
2022/04/06 07:32:14;;;;;;;9.30;6.63;;;;;;;;;;742251;187;919305;-60
2022/04/06 07:34:39;;;;;;;10.17;7.23;;;;;;;;;;745224;187;919524;-61
2022/04/06 07:37:05;;;;;;;8.40;6.93;;;;;;;;;;743277;186;919463;-61
2022/04/06 07:39:31;;;;;;;9.63;7.03;;;;;;;;;;744508;186;919694;-62
2022/04/06 07:41:57;;;;;;;12.20;7.43;;;;;;;;;;746710;186;893423;-61
2022/04/06 07:44:23;;;;;;;8.43;6.63;;;;;;;;;;747255;184;919494;-60
2022/04/06 07:46:49;;;;;;;7.63;6.20;;;;;;;;;;748200;186;920303;-61
2022/04/06 07:49:14;;;;;;;8.60;6.47;;;;;;;;;;749295;187;917684;-61
2022/04/06 07:51:40;;;;;;;8.30;6.63;;;;;;;;;;747531;184;919375;-61
2022/04/06 07:54:06;;;;;;;9.63;6.20;;;;;;;;;;740082;187;920144;-61
2022/04/06 07:56:32;;;;;;;11.77;6.50;;;;;;;;;;742441;187;918773;-61
2022/04/06 07:58:58;;;;;;;8.35;7.22;;;;;;;;;;749628;186;917872;-61
2022/04/06 08:01:24;;;;;;;10.07;7.63;;;;;;;;;;744603;185;1020639;-61
2022/04/06 08:03:49;;;;;;;11.00;6.23;;;;;;;;;;742660;185;919366;-61
2022/04/06 08:06:15;;;;;;;11.27;7.63;;;;;;;;;;747464;187;919414;-61
2022/04/06 08:08:41;;;;;;;9.93;7.17;;;;;;;;;;746344;185;919092;-61
2022/04/06 08:11:08;;;;;;;10.60;7.50;;;;;;;;;;747049;185;919406;-61
2022/04/06 08:13:33;;;;;;;10.80;7.67;;;;;;;;;;749939;187;919469;-63
2022/04/06 08:15:59;;;;;;;8.83;7.30;;;;;;;;;;748172;184;919889;-60
2022/04/06 08:18:25;;;;;;;10.13;7.70;;;;;;;;;;744332;185;919534;-61
2022/04/06 08:20:50;;;;;;;10.60;7.10;;;;;;;;;;749802;185;817150;-61
2022/04/06 08:23:19;;;;;;;8.90;6.10;;;;;;;;;;757795;185;627084;-61
2022/04/06 08:25:43;;;;;;;6.90;5.50;;;;;;;;;;747101;185;919160;-62
2022/04/06 08:28:10;;;;;;;6.27;4.17;;;;;;;;;;745603;188;917035;-61
2022/04/06 08:30:39;;;;;;;10.43;5.70;;;;;;;;;;751849;185;623815;-61
2022/04/06 08:33:00;;;;;;;7.23;5.10;;;;;;;;;;747142;186;919478;-62
2022/04/06 08:35:26;;;;;;;8.47;5.57;;;;;;;;;;745844;185;1057720;-60
2022/04/06 08:37:52;;;;;;;7.20;4.50;;;;;;;;;;752155;187;616993;-61
2022/04/06 08:40:18;;;;;;;7.43;5.87;;;;;;;;;;745785;186;617190;-61
2022/04/06 08:42:44;;;;;;;9.47;5.97;;;;;;;;;;745866;186;623459;-60
2022/04/06 08:45:10;;;;;;;7.50;5.53;;;;;;;;;;746196;186;630867;-60
2022/04/06 08:47:36;;;;;;;7.70;5.23;;;;;;;;;;757572;185;624519;-62
2022/04/06 08:50:03;;;;;;;8.57;5.80;;;;;;;;;;749250;185;919585;-61
2022/04/06 08:52:31;;;;;;;9.27;6.67;;;;;;;;;;747510;187;919288;-61
2022/04/06 08:54:57;;;;;;;7.53;6.03;;;;;;;;;;751953;185;919668;-61
2022/04/06 08:57:23;;;;;;;10.50;6.30;;;;;;;;;;742874;188;920237;-61
2022/04/06 08:59:49;;;;;;;6.90;5.77;;;;;;;;;;742194;185;920035;-60
2022/04/06 09:02:17;;;;;;;7.40;5.20;;;;;;;;;;745692;188;919449;-60
2022/04/06 09:04:43;;;;;;;7.23;5.60;;;;;;;;;;745445;187;918910;-60
2022/04/06 09:07:09;;;;;;;8.47;6.37;;;;;;;;;;744254;187;920273;-61
2022/04/06 09:09:34;;;;;;;7.17;5.83;;;;;;;;;;745343;187;918755;-61
2022/04/06 09:12:00;;;;;;;9.02;6.53;;;;;;;;;;748041;184;981083;-60
2022/04/06 09:14:28;;;;;;;8.00;6.30;;;;;;;;;;716385;190;919483;-61
2022/04/06 09:17:00;;;;;;;6.83;5.10;;;;;;;;;;745265;184;919197;-62
2022/04/06 09:19:26;;;;;;;6.73;5.00;;;;;;;;;;751491;185;917237;-61
2022/04/06 09:21:52;;;;;;;7.00;5.90;;;;;;;;;;745703;186;918280;-60
2022/04/06 09:24:17;;;;;;;9.20;6.83;;;;;;;;;;750570;184;919577;-61
2022/04/06 09:26:43;;;;;;;6.67;5.97;;;;;;;;;;739474;187;911838;-61
2022/04/06 09:29:11;;;;;;;8.30;5.83;;;;;;;;;;742617;186;919714;-62
2022/04/06 09:31:37;;;;;;;8.70;6.30;;;;;;;;;;741423;187;912987;-63
2022/04/06 09:34:03;;;;;;;4.40;3.13;;;;;;;;;;743433;186;930526;-61
2022/04/06 09:36:28;;;;;;;5.40;3.40;;;;;;;;;;746010;184;918675;-61
2022/04/06 09:38:54;;;;;;;8.47;5.63;;;;;;;;;;715035;195;947132;-62
2022/04/06 09:41:20;;;;;;;9.75;5.90;;;;;;;;;;708546;194;921378;-61
2022/04/06 09:43:46;;;;;;;10.03;3.53;;;;;;;;;;720061;194;1022524;-62
2022/04/06 09:48:57;;;;;;;9.10;6.07;;;;;;;;;;748494;185;918597;-62
2022/04/06 09:51:23;;;;;;;5.27;4.00;;;;;;;;;;741413;185;918012;-63
2022/04/06 09:53:48;;;;;;;6.70;5.80;;;;;;;;;;741262;185;919302;-62
2022/04/06 09:56:14;;;;;;;5.57;4.27;;;;;;;;;;746950;188;919414;-63
2022/04/06 09:58:40;;;;;;;8.77;5.53;;;;;;;;;;743603;187;917980;-62
2022/04/06 10:01:06;;;;;;;8.63;5.00;;;;;;;;;;740323;187;922093;-62
2022/04/06 10:03:32;;;;;;;7.00;4.40;;;;;;;;;;745308;188;919390;-62
2022/04/06 10:05:58;;;;;;;5.17;4.17;;;;;;;;;;736326;184;919295;-61
2022/04/06 10:08:23;;;;;;;8.93;5.07;;;;;;;;;;743784;186;919201;-63
2022/04/06 10:10:51;;;;;;;6.20;5.57;;;;;;;;;;745515;185;919255;-62
2022/04/06 10:13:15;;;;;;;7.00;4.63;;;;;;;;;;757535;185;919169;-61
2022/04/06 10:15:42;;;;;;;7.23;4.87;;;;;;;;;;750698;185;920049;-62
2022/04/06 10:18:07;;;;;;;5.60;4.57;;;;;;;;;;744675;187;919300;-62
2022/04/06 10:20:38;;;;;;;5.73;4.47;;;;;;;;;;751334;187;918729;-64
2022/04/06 10:23:06;;;;;;;7.73;4.20;;;;;;;;;;746772;187;920259;-63
2022/04/06 10:25:47;;;;;;;7.13;5.17;;;;;;;;;;747939;185;919629;-63
2022/04/06 10:28:13;;;;;;;6.87;5.10;;;;;;;;;;742706;187;918620;-63
2022/04/06 10:30:39;;;;;;;6.87;5.40;;;;;;;;;;737713;187;919715;-62
2022/04/06 10:33:11;;;;;;;9.60;5.30;;;;;;;;;;741764;187;919242;-62
2022/04/06 10:35:37;;;;;;;6.33;4.40;;;;;;;;;;741244;185;917961;-62
2022/04/06 10:38:18;;;;;;;8.20;5.73;;;;;;;;;;744284;187;920368;-62
2022/04/06 10:40:59;;;;;;;6.80;5.30;;;;;;;;;;744436;186;919134;-63
2022/04/06 10:43:31;;;;;;;6.97;4.13;;;;;;;;;;741226;186;918826;-63
2022/04/06 10:45:58;;;;;;;7.87;4.90;;;;;;;;;;746158;185;919890;-61
2022/04/06 10:48:23;;;;;;;5.30;4.03;;;;;;;;;;716804;193;918685;-63
2022/04/06 10:50:48;;;;;;;6.97;5.03;;;;;;;;;;742691;187;919070;-62
2022/04/06 10:53:26;;;;;;;7.73;6.00;;;;;;;;;;743039;184;918650;-64
2022/04/06 10:55:57;;;;;;;8.40;5.60;;;;;;;;;;745128;187;919299;-62
2022/04/06 10:58:24;;;;;;;8.07;6.23;;;;;;;;;;747338;188;918924;-62
2022/04/06 11:00:48;;;;;;;6.13;4.37;;;;;;;;;;742179;187;1021891;-62
2022/04/06 11:03:15;;;;;;;9.02;5.87;;;;;;;;;;745314;184;919278;-62
2022/04/06 11:05:40;;;;;;;11.10;6.10;;;;;;;;;;749578;186;903440;-62
2022/04/06 11:10:38;;;;;;;7.23;5.30;;;;;;;;;;743930;184;918857;-63
2022/04/06 11:13:04;;;;;;;6.50;5.80;;;;;;;;;;743711;184;918808;-63
2022/04/06 11:15:32;;;;;;;9.03;4.97;;;;;;;;;;745202;186;919198;-63
2022/04/06 11:17:58;;;;;;;6.77;4.30;;;;;;;;;;744245;184;919854;-62
2022/04/06 11:20:29;;;;;;;5.10;4.03;;;;;;;;;;744022;185;921044;-63
2022/04/06 11:22:57;;;;;;;8.30;6.05;;;;;;;;;;751054;185;919252;-61
2022/04/06 11:25:22;;;;;;;12.53;6.60;;;;;;;;;;748022;185;915982;-63
2022/04/06 11:27:47;;;;;;;9.60;6.63;;;;;;;;;;746385;185;916264;-63
2022/04/06 11:30:14;;;;;;;9.07;6.40;;;;;;;;;;745599;184;919966;-61
2022/04/06 11:32:40;;;;;;;7.65;6.12;;;;;;;;;;749808;185;936282;-62
2022/04/06 11:35:07;;;;;;;7.47;6.10;;;;;;;;;;743742;185;913144;-64
2022/04/06 11:37:40;;;;;;;9.73;8.20;;;;;;;;;;749565;187;629011;-62
2022/04/06 11:40:05;;;;;;;7.03;5.77;;;;;;;;;;746189;185;916222;-61
2022/04/06 11:42:31;;;;;;;7.40;6.57;;;;;;;;;;741223;186;911616;-62
2022/04/06 11:44:57;;;;;;;8.93;6.93;;;;;;;;;;748529;186;912487;-64
2022/04/06 11:47:27;;;;;;;8.43;6.70;;;;;;;;;;742010;185;915952;-62
2022/04/06 11:49:52;;;;;;;9.03;7.70;;;;;;;;;;752246;187;920374;-62
2022/04/06 11:52:18;;;;;;;10.17;6.50;;;;;;;;;;740728;187;1118300;-62
2022/04/06 11:54:49;;;;;;;7.47;5.50;;;;;;;;;;746798;185;923321;-62
2022/04/06 11:57:15;;;;;;;7.83;5.50;;;;;;;;;;745884;185;919968;-64
2022/04/06 11:59:41;;;;;;;16.00;6.00;;;;;;;;;;750486;185;919935;-63
2022/04/06 12:02:06;;;;;;;8.60;5.97;;;;;;;;;;745325;187;919900;-62
2022/04/06 12:04:33;;;;;;;7.40;6.30;;;;;;;;;;745727;186;919629;-62
2022/04/06 12:06:59;;;;;;;7.40;6.03;;;;;;;;;;750620;184;917716;-62
2022/04/06 12:09:25;;;;;;;7.97;5.90;;;;;;;;;;743669;186;933067;-62
2022/04/06 12:11:51;;;;;;;6.85;6.15;;;;;;;;;;742682;185;925439;-62
2022/04/06 12:14:17;;;;;;;8.00;5.70;;;;;;;;;;749364;186;918058;-62
2022/04/06 12:16:43;;;;;;;7.43;5.30;;;;;;;;;;728920;188;918100;-62
2022/04/06 12:19:12;;;;;;;6.68;4.93;;;;;;;;;;740142;184;918247;-64
2022/04/06 12:21:34;;;;;;;8.23;5.00;;;;;;;;;;747770;187;918730;-60
2022/04/06 12:24:00;;;;;;;7.03;5.77;;;;;;;;;;749855;184;723272;-67
2022/04/06 12:26:26;;;;;;;5.63;4.97;;;;;;;;;;745155;185;918900;-63
2022/04/06 12:28:58;;;;;;;7.77;5.43;;;;;;;;;;737765;185;916951;-63
2022/04/06 12:31:29;;;;;;;7.67;6.00;;;;;;;;;;751361;186;642474;-63
2022/04/06 12:33:55;;;;;;;6.80;5.07;;;;;;;;;;753807;185;616003;-63
2022/04/06 12:36:23;;;;;;;7.70;5.60;;;;;;;;;;742314;185;920691;-63
2022/04/06 12:38:55;;;;;;;6.30;5.40;;;;;;;;;;743908;186;901576;-62
2022/04/06 12:41:21;;;;;;;7.60;5.77;;;;;;;;;;748062;187;919555;-62
2022/04/06 12:43:46;;;;;;;8.33;5.80;;;;;;;;;;752140;185;635197;-63
2022/04/06 12:46:12;;;;;;;6.60;5.90;;;;;;;;;;750008;186;762955;-63
2022/04/06 12:48:37;;;;;;;8.00;5.93;;;;;;;;;;744686;186;923164;-62
2022/04/06 12:51:21;;;;;;;7.77;6.60;;;;;;;;;;751316;185;890235;-62
2022/04/06 12:53:45;;;;;;;6.80;5.70;;;;;;;;;;750048;184;919216;-62
2022/04/06 12:56:11;;;;;;;7.83;5.90;;;;;;;;;;746159;185;919149;-62
2022/04/06 12:58:37;;;;;;;12.00;5.37;;;;;;;;;;743096;186;927965;-63
2022/04/06 13:01:03;;;;;;;7.27;4.63;;;;;;;;;;751024;184;920392;-64
2022/04/06 13:03:29;;;;;;;5.90;4.30;;;;;;;;;;747218;184;814904;-62
2022/04/06 13:05:54;;;;;;;24.33;4.80;;;;;;;;;;743272;184;918943;-62
2022/04/06 13:08:22;;;;;;;5.40;3.97;;;;;;;;;;750201;185;918333;-62
2022/04/06 13:10:46;;;;;;;4.70;3.83;;;;;;;;;;747517;184;912517;-64
2022/04/06 13:13:12;;;;;;;5.67;4.37;;;;;;;;;;748349;187;816775;-65
2022/04/06 13:15:38;;;;;;;6.95;4.60;;;;;;;;;;739623;186;930523;-63
2022/04/06 13:18:05;;;;;;;7.93;5.10;;;;;;;;;;744726;184;913421;-61
2022/04/06 13:20:30;;;;;;;6.60;5.47;;;;;;;;;;745051;185;919481;-62
2022/04/06 13:22:56;;;;;;;5.60;3.93;;;;;;;;;;745371;185;817597;-64
2022/04/06 13:25:21;;;;;;;6.47;4.57;;;;;;;;;;750836;186;786744;-62
2022/04/06 13:27:47;;;;;;;6.27;4.97;;;;;;;;;;741875;186;919245;-64
2022/04/06 13:30:13;;;;;;;5.87;4.40;;;;;;;;;;744984;186;919383;-65
2022/04/06 13:32:39;;;;;;;6.50;5.03;;;;;;;;;;750805;187;914467;-64
2022/04/06 13:35:05;;;;;;;7.17;5.10;;;;;;;;;;746519;185;919418;-63
2022/04/06 13:37:31;;;;;;;7.57;5.40;;;;;;;;;;741344;184;963344;-62
2022/04/06 13:39:57;;;;;;;6.00;4.72;;;;;;;;;;745888;184;920072;-62
2022/04/06 13:42:23;;;;;;;4.73;3.43;;;;;;;;;;751631;183;947920;-63
2022/04/06 13:44:49;;;;;;;6.30;3.87;;;;;;;;;;750343;185;628748;-64
2022/04/06 13:47:14;;;;;;;5.28;4.10;;;;;;;;;;747800;184;919134;-63
2022/04/06 13:49:40;;;;;;;6.60;4.80;;;;;;;;;;749813;184;926936;-64
2022/04/06 13:52:06;;;;;;;6.67;3.67;;;;;;;;;;745009;186;919073;-63
2022/04/06 13:54:32;;;;;;;8.50;4.18;;;;;;;;;;744373;186;918883;-63
2022/04/06 13:56:58;;;;;;;5.47;4.20;;;;;;;;;;752902;184;626973;-63
2022/04/06 13:59:24;;;;;;;4.33;3.10;;;;;;;;;;748308;186;919467;-63
2022/04/06 14:01:51;;;;;;;5.10;3.37;;;;;;;;;;748973;187;616826;-64
2022/04/06 14:04:17;;;;;;;3.80;3.10;;;;;;;;;;748478;185;634693;-62
2022/04/06 14:06:43;;;;;;;4.80;3.10;;;;;;;;;;748061;185;626317;-64
2022/04/06 14:09:09;;;;;;;4.37;2.80;;;;;;;;;;746315;186;644923;-64
2022/04/06 14:11:35;;;;;;;5.13;2.73;;;;;;;;;;744522;187;918508;-64
2022/04/06 14:14:01;;;;;;;5.60;3.47;;;;;;;;;;753738;186;613434;-63
2022/04/06 14:16:27;;;;;;;5.28;3.08;;;;;;;;;;745720;184;918311;-62
2022/04/06 14:18:55;;;;;;;3.23;2.33;;;;;;;;;;747672;186;787160;-62
2022/04/06 14:21:19;;;;;;;4.13;3.10;;;;;;;;;;747513;187;642674;-62
2022/04/06 14:23:44;;;;;;;5.40;4.00;;;;;;;;;;743874;187;919746;-63
2022/04/06 14:26:10;;;;;;;4.80;3.50;;;;;;;;;;746887;187;918697;-64